メインページ
METAR-TAF:

METAR-TAF

空港 :

ルクセンブルク, ルクセンブルク

ルクセンブルク-フィンデル空港

緯度: 49-37N, 経度: 006-13E, 海抜: 376m

現時点の気象観測

当レポートは31分前の11:20(UTC)に作成
変向風 4kt
気温 22°C
湿度 50%
気圧 1025 hPa
視程10km以上
高度3700ftの雲はほとんどない
高度4800ftの雲は散在している

METAR: ELLX 241120Z VRB04KT 9999 FEW037 SCT048 22/11 Q1025 NOSIG

時間: 13:51 (11:51 UTC)

予報

当レポートは51分前の11:00(UTC)に作成
予報は24日の 12時(UTC)から 25日の 18時(UTC)まで有効
西/北西の風 3kt
視程10km以上
高度4000ftの雲は散在している
25日の 03時(UTC)から 25日の 06時(UTC)まで徐々に
北/北東の風 7kt

TAF: ELLX 241100Z 2412/2518 30003KT 9999 SCT040 BECMG 2503/2506 03007KT

4,000以上の空港の気象観測と天気予報(METAR報とTAF報)

利用可能な観測所は地図上に黄色い丸と赤い丸で示す。

丸の上にカーソルを重ねると観測所名を参照できる。

次にクリックすると気象観測と天気予報を参照できる。

マップの切り替え:黒色「×」印の緑ボタンをクリックして拡大、「-」印の緑ボタンをクリックして縮小、緑色の三角印をクリックして隣りの地図に切り替え


METAR-TAF: